X  Κλείσε Στοιχεία αεροπορικών μετεωρολογικών δεδομένων METAR     LGRX Patras Araxos Agamemnon Airport
Θερμοκρασία
77°F Θερμοκρασία
66°F Σημείο δρόσου
69% Υγρασία



Άνεμος
9 MPH
14 KM/H
4 M/S
8 KTS



190°
N
Τρέχουσες Συνθήκες

Κυρίως Νεφελώδης Κυρίως Νεφελώδης
Πίεση 1008.92 (hPa) - 29.79 (inHg)
Ορατότητα 6.2 (μίλια) - 10 (km)
Aεροδρόμιο
Κωδικός Αεροδρομίου LGRX

Τοποθεσία: Patras Araxos Agamemnon Airport
Απόσταση: 108 (mi)

Metar:
LGRX 280820Z 19008KT 9999 BKN025 25/19 Q1009

ώρα: 28-09-2022 11:20 EEST